createdAt,value
2018-04-07T00:00:26.589Z,8.40
2018-04-07T00:02:54.088Z,8.41
2018-04-07T00:05:21.590Z,8.42
2018-04-07T00:07:49.110Z,8.39
2018-04-07T00:10:16.615Z,8.35
2018-04-07T00:12:44.148Z,8.31
2018-04-07T00:15:11.653Z,8.30
2018-04-07T00:17:39.389Z,8.30
2018-04-07T00:20:06.963Z,8.28
2018-04-07T00:22:34.463Z,8.28
2018-04-07T00:25:01.984Z,8.26
2018-04-07T00:27:29.490Z,8.18
2018-04-07T00:29:57.249Z,8.22
2018-04-07T00:32:24.807Z,8.22
2018-04-07T00:34:52.353Z,8.23
2018-04-07T00:37:19.897Z,8.29
2018-04-07T00:39:47.412Z,8.30
2018-04-07T00:42:14.972Z,8.33
2018-04-07T00:44:42.455Z,8.31
2018-04-07T00:47:09.943Z,8.27
2018-04-07T00:49:37.455Z,8.21
2018-04-07T00:52:04.977Z,8.19
2018-04-07T00:54:32.486Z,8.17
2018-04-07T00:57:00.023Z,8.12
2018-04-07T00:59:27.537Z,8.13
2018-04-07T01:01:55.062Z,8.12
2018-04-07T01:04:22.554Z,8.12
2018-04-07T01:06:50.058Z,8.16
2018-04-07T01:09:17.571Z,8.06
2018-04-07T01:11:45.125Z,8.01
2018-04-07T01:14:12.637Z,7.93
2018-04-07T01:16:40.172Z,7.87
2018-04-07T01:19:07.699Z,7.87
2018-04-07T01:21:35.280Z,7.92
2018-04-07T01:24:03.070Z,7.90
2018-04-07T01:26:30.591Z,7.89
2018-04-07T01:28:58.080Z,7.95
2018-04-07T01:31:25.588Z,8.01
2018-04-07T01:33:53.084Z,7.93
2018-04-07T01:36:20.597Z,7.88
2018-04-07T01:38:48.104Z,7.76
2018-04-07T01:41:15.672Z,7.73
2018-04-07T01:43:43.193Z,7.70
2018-04-07T01:46:10.709Z,7.67
2018-04-07T01:48:38.213Z,7.65
2018-04-07T01:51:05.700Z,7.65
2018-04-07T01:53:33.203Z,7.62
2018-04-07T01:56:00.735Z,7.60
2018-04-07T01:58:28.263Z,7.49
2018-04-07T02:00:55.826Z,7.47
2018-04-07T02:03:23.329Z,7.46
2018-04-07T02:05:50.834Z,7.43
2018-04-07T02:08:18.340Z,7.36
2018-04-07T02:10:45.851Z,7.33
2018-04-07T02:13:13.362Z,7.35
2018-04-07T02:15:40.937Z,7.32
2018-04-07T02:18:08.461Z,7.35
2018-04-07T02:20:35.954Z,7.35
2018-04-07T02:23:03.437Z,7.25
2018-04-07T02:25:30.934Z,7.27
2018-04-07T02:27:58.503Z,7.25
2018-04-07T02:30:26.011Z,7.25
2018-04-07T02:32:53.517Z,7.27
2018-04-07T02:35:21.077Z,7.28
2018-04-07T02:37:48.620Z,7.28
2018-04-07T02:40:16.165Z,7.22
2018-04-07T02:42:43.750Z,7.19
2018-04-07T02:45:11.297Z,7.19
2018-04-07T02:47:38.805Z,7.15
2018-04-07T02:50:06.325Z,7.11
2018-04-07T02:52:33.848Z,7.12
2018-04-07T02:55:01.396Z,7.08
2018-04-07T02:57:28.965Z,7.06
2018-04-07T02:59:56.436Z,7.09
2018-04-07T03:02:23.984Z,7.06
2018-04-07T03:04:51.492Z,7.07
2018-04-07T03:07:19.011Z,7.11
2018-04-07T03:09:46.577Z,7.09
2018-04-07T03:12:14.106Z,7.08
2018-04-07T03:14:41.619Z,7.08
2018-04-07T03:17:09.182Z,7.09
2018-04-07T03:19:36.710Z,7.08
2018-04-07T03:22:04.215Z,7.11
2018-04-07T03:24:31.754Z,7.12
2018-04-07T03:26:59.277Z,7.04
2018-04-07T03:29:26.800Z,7.01
2018-04-07T03:31:54.286Z,6.95
2018-04-07T03:34:21.998Z,6.92
2018-04-07T03:36:49.507Z,6.79
2018-04-07T03:39:17.027Z,6.71
2018-04-07T03:41:44.535Z,6.75
2018-04-07T03:44:12.051Z,6.63
2018-04-07T03:46:39.546Z,6.60
2018-04-07T03:49:07.051Z,6.52
2018-04-07T03:51:34.551Z,6.50
2018-04-07T03:54:02.079Z,6.48
2018-04-07T03:56:29.602Z,6.47
2018-04-07T03:58:57.117Z,6.50
2018-04-07T04:01:24.634Z,6.49
2018-04-07T04:03:52.152Z,6.45
2018-04-07T04:06:19.673Z,6.42
2018-04-07T04:08:47.200Z,6.43
2018-04-07T04:11:14.736Z,6.45
2018-04-07T04:13:42.255Z,6.47
2018-04-07T04:16:09.781Z,6.44
2018-04-07T04:18:37.307Z,6.41
2018-04-07T04:21:04.824Z,6.36
2018-04-07T04:23:32.339Z,6.37
2018-04-07T04:25:59.854Z,6.32
2018-04-07T04:28:27.391Z,6.29
2018-04-07T04:30:54.898Z,6.28
2018-04-07T04:33:22.461Z,6.27
2018-04-07T04:35:50.059Z,6.26
2018-04-07T04:38:17.563Z,6.30
2018-04-07T04:40:45.084Z,6.28
2018-04-07T04:43:12.626Z,6.27
2018-04-07T04:45:40.126Z,6.31
2018-04-07T04:48:07.728Z,6.33
2018-04-07T04:50:35.302Z,6.30
2018-04-07T04:53:02.812Z,6.33
2018-04-07T04:55:30.334Z,6.33
2018-04-07T04:57:57.903Z,6.31
2018-04-07T05:00:25.409Z,6.30
2018-04-07T05:02:52.915Z,6.30
2018-04-07T05:05:20.439Z,6.30
2018-04-07T05:07:47.961Z,6.35
2018-04-07T05:10:15.472Z,6.40
2018-04-07T05:12:43.055Z,6.43
2018-04-07T05:15:10.568Z,6.36
2018-04-07T05:17:38.104Z,6.42
2018-04-07T05:20:05.588Z,6.45
2018-04-07T05:22:33.122Z,6.54
2018-04-07T05:25:00.623Z,6.55
2018-04-07T05:27:28.179Z,6.67
2018-04-07T05:29:55.718Z,6.75
2018-04-07T05:32:23.223Z,6.80
2018-04-07T05:34:50.743Z,6.80
2018-04-07T05:37:18.239Z,6.86
2018-04-07T05:39:45.749Z,7.00
2018-04-07T05:42:13.260Z,7.03
2018-04-07T05:44:40.767Z,7.08
2018-04-07T05:47:08.289Z,7.19
2018-04-07T05:49:35.785Z,7.26
2018-04-07T05:52:03.284Z,7.34
2018-04-07T05:54:30.758Z,7.26
2018-04-07T05:56:58.254Z,7.49
2018-04-07T05:59:25.751Z,7.52
2018-04-07T06:01:53.248Z,7.62
2018-04-07T06:04:20.765Z,7.57
2018-04-07T06:06:48.287Z,7.72
2018-04-07T06:09:15.791Z,7.88
2018-04-07T06:11:43.303Z,7.94
2018-04-07T06:14:10.825Z,8.06
2018-04-07T06:16:38.313Z,8.13
2018-04-07T06:19:05.958Z,8.21
2018-04-07T06:21:33.481Z,8.44
2018-04-07T06:24:00.993Z,8.58
2018-04-07T06:26:28.498Z,8.68
2018-04-07T06:28:56.030Z,8.81
2018-04-07T06:31:23.720Z,8.88
2018-04-07T06:33:51.308Z,9.12
2018-04-07T06:36:18.834Z,9.17
2018-04-07T06:38:46.332Z,9.22
2018-04-07T06:41:13.836Z,9.43
2018-04-07T06:43:41.341Z,9.51
2018-04-07T06:46:09.082Z,9.53
2018-04-07T06:48:36.643Z,9.80
2018-04-07T06:51:04.115Z,9.92
2018-04-07T06:53:31.673Z,10.01
2018-04-07T06:55:59.349Z,10.18
2018-04-07T06:58:26.892Z,10.47
2018-04-07T07:00:54.465Z,10.44
2018-04-07T07:03:21.963Z,10.68
2018-04-07T07:05:49.476Z,10.98
2018-04-07T07:08:17.006Z,10.97
2018-04-07T07:10:44.511Z,11.07
2018-04-07T07:13:12.019Z,11.27
2018-04-07T07:15:39.606Z,11.38
2018-04-07T07:18:07.152Z,11.55
2018-04-07T07:20:34.746Z,11.74
2018-04-07T07:23:02.277Z,11.76
2018-04-07T07:25:29.810Z,11.78
2018-04-07T07:27:57.343Z,11.94
2018-04-07T07:30:24.850Z,11.95
2018-04-07T07:32:52.425Z,12.18
2018-04-07T07:35:19.967Z,12.23
2018-04-07T07:37:47.477Z,12.46
2018-04-07T07:40:14.988Z,12.72
2018-04-07T07:42:42.488Z,12.65
2018-04-07T07:45:09.988Z,12.84
2018-04-07T07:47:37.473Z,12.95
2018-04-07T07:50:04.970Z,12.97
2018-04-07T07:52:32.470Z,13.20
2018-04-07T07:54:59.969Z,13.22
2018-04-07T07:57:27.491Z,13.54
2018-04-07T07:59:54.992Z,13.58
2018-04-07T08:02:22.511Z,13.76
2018-04-07T08:04:50.063Z,13.98
2018-04-07T08:07:17.675Z,14.07
2018-04-07T08:09:45.306Z,14.06
2018-04-07T08:12:12.809Z,14.01
2018-04-07T08:14:40.293Z,14.19
2018-04-07T08:17:07.833Z,14.12
2018-04-07T08:19:35.344Z,14.48
2018-04-07T08:22:02.863Z,14.76
2018-04-07T08:24:30.416Z,14.99
2018-04-07T08:26:57.912Z,15.15
2018-04-07T08:29:25.459Z,15.25
2018-04-07T08:31:54.027Z,15.51
2018-04-07T08:34:21.522Z,15.59
2018-04-07T08:36:49.003Z,15.93
2018-04-07T08:39:16.497Z,16.18
2018-04-07T08:41:47.537Z,15.69
2018-04-07T08:44:20.819Z,16.14
2018-04-07T08:46:52.275Z,16.09
2018-04-07T08:49:31.370Z,16.31
2018-04-07T08:52:08.089Z,16.19
2018-04-07T08:54:40.324Z,16.59
2018-04-07T08:57:12.919Z,16.72
2018-04-07T08:59:49.162Z,16.74
2018-04-07T09:02:18.545Z,17.08
2018-04-07T09:04:46.390Z,17.18
2018-04-07T09:07:16.248Z,17.20
2018-04-07T09:09:54.218Z,17.35
2018-04-07T09:12:22.101Z,17.15
2018-04-07T09:14:54.378Z,17.45
2018-04-07T09:17:33.173Z,17.50
2018-04-07T09:20:02.181Z,17.72
2018-04-07T09:22:32.752Z,17.64
2018-04-07T09:25:05.738Z,17.88
2018-04-07T09:27:56.356Z,18.06
2018-04-07T09:30:35.014Z,18.27
2018-04-07T09:33:05.908Z,18.51
2018-04-07T09:35:33.840Z,18.38
2018-04-07T09:38:02.841Z,18.32
2018-04-07T09:40:30.847Z,18.73
2018-04-07T09:43:02.410Z,18.94
2018-04-07T09:45:31.807Z,18.96
2018-04-07T09:48:04.549Z,19.13
2018-04-07T09:50:33.008Z,19.25
2018-04-07T09:53:01.142Z,19.53
2018-04-07T09:55:28.929Z,19.88
2018-04-07T09:57:57.104Z,19.66
2018-04-07T10:00:24.961Z,19.91
2018-04-07T10:02:57.971Z,20.20
2018-04-07T10:05:25.583Z,19.93
2018-04-07T10:07:53.098Z,20.60
2018-04-07T10:10:20.682Z,20.43
2018-04-07T10:12:48.168Z,20.49
2018-04-07T10:15:15.698Z,20.70
2018-04-07T10:17:43.199Z,20.51
2018-04-07T10:20:10.773Z,20.99
2018-04-07T10:22:38.291Z,20.78
2018-04-07T10:25:05.813Z,21.15
2018-04-07T10:27:33.313Z,20.81
2018-04-07T10:30:00.824Z,21.25
2018-04-07T10:32:28.328Z,21.24
2018-04-07T10:34:55.891Z,21.20
2018-04-07T10:37:23.485Z,21.40
2018-04-07T10:39:50.995Z,20.94
2018-04-07T10:42:18.494Z,21.18
2018-04-07T10:44:46.079Z,21.80
2018-04-07T10:47:13.650Z,21.61
2018-04-07T10:49:41.153Z,21.52
2018-04-07T10:52:08.642Z,21.71
2018-04-07T10:54:36.178Z,22.03
2018-04-07T10:57:03.687Z,21.78
2018-04-07T10:59:31.194Z,22.16
2018-04-07T11:01:58.749Z,22.24
2018-04-07T11:04:26.289Z,22.61
2018-04-07T11:06:53.795Z,22.33
2018-04-07T11:09:21.419Z,22.87
2018-04-07T11:11:49.010Z,22.88
2018-04-07T11:14:16.641Z,22.77
2018-04-07T11:16:44.195Z,22.54
2018-04-07T11:19:11.691Z,22.68
2018-04-07T11:21:39.191Z,22.54
2018-04-07T11:24:06.736Z,22.91
2018-04-07T11:26:34.287Z,22.91
2018-04-07T11:29:01.862Z,22.75
2018-04-07T11:31:29.438Z,23.68
2018-04-07T11:33:56.990Z,24.25
2018-04-07T11:36:24.780Z,24.67
2018-04-07T11:38:52.871Z,25.88
2018-04-07T11:41:20.437Z,27.98
2018-04-07T11:43:47.932Z,30.10
2018-04-07T11:46:15.526Z,31.69
2018-04-07T11:48:43.103Z,32.17
2018-04-07T11:51:10.621Z,33.59
2018-04-07T11:53:38.196Z,35.25
2018-04-07T11:56:05.687Z,34.71
2018-04-07T11:58:33.243Z,36.09
2018-04-07T12:01:00.831Z,36.72
2018-04-07T12:03:28.307Z,36.81
2018-04-07T12:05:55.885Z,37.76
2018-04-07T12:08:23.388Z,38.34
2018-04-07T12:10:50.891Z,37.14
2018-04-07T12:13:18.409Z,40.05
2018-04-07T12:15:45.899Z,38.99
2018-04-07T12:18:13.478Z,38.92
2018-04-07T12:20:41.006Z,40.37
2018-04-07T12:23:08.491Z,39.86
2018-04-07T12:25:36.071Z,39.15
2018-04-07T12:28:03.617Z,40.44
2018-04-07T12:30:31.150Z,38.57
2018-04-07T12:32:58.662Z,41.29
2018-04-07T12:35:26.209Z,42.91
2018-04-07T12:37:53.720Z,42.27
2018-04-07T12:40:21.221Z,41.64
2018-04-07T12:42:48.816Z,42.12
2018-04-07T12:45:16.307Z,40.88
2018-04-07T12:47:43.794Z,41.05
2018-04-07T12:50:11.291Z,42.49
2018-04-07T12:52:38.778Z,41.85
2018-04-07T12:55:06.307Z,41.59
2018-04-07T12:57:33.833Z,42.52
2018-04-07T13:00:01.369Z,43.18
2018-04-07T13:02:28.860Z,41.97
2018-04-07T13:04:56.408Z,41.48
2018-04-07T13:07:23.915Z,43.70
2018-04-07T13:09:51.440Z,42.49
2018-04-07T13:12:18.961Z,44.22
2018-04-07T13:14:46.468Z,46.78
2018-04-07T13:17:14.027Z,46.67
2018-04-07T13:19:41.554Z,48.34
2018-04-07T13:22:09.067Z,43.61
2018-04-07T13:24:36.571Z,44.91
2018-04-07T13:27:04.091Z,46.64
2018-04-07T13:29:31.600Z,44.93
2018-04-07T13:31:59.158Z,45.51
2018-04-07T13:34:26.701Z,45.70
2018-04-07T13:36:54.385Z,47.45
2018-04-07T13:39:22.015Z,48.74
2018-04-07T13:41:49.573Z,47.46
2018-04-07T13:44:17.113Z,44.33
2018-04-07T13:46:44.676Z,46.54
2018-04-07T13:49:12.169Z,46.09
2018-04-07T13:51:39.746Z,46.09
2018-04-07T13:54:07.310Z,44.16
2018-04-07T13:56:34.869Z,44.39
2018-04-07T13:59:02.498Z,45.36
2018-04-07T14:01:30.060Z,42.97
2018-04-07T14:03:57.557Z,44.74
2018-04-07T14:06:25.124Z,44.37
2018-04-07T14:08:52.621Z,46.06
2018-04-07T14:11:20.093Z,44.34
2018-04-07T14:13:47.584Z,43.73
2018-04-07T14:16:15.088Z,43.72
2018-04-07T14:18:42.577Z,43.65
2018-04-07T14:21:10.081Z,45.24
2018-04-07T14:23:37.564Z,47.46
2018-04-07T14:26:05.096Z,47.79
2018-04-07T14:28:32.588Z,46.45
2018-04-07T14:31:00.081Z,47.25
2018-04-07T14:33:27.609Z,44.82
2018-04-07T14:35:55.358Z,42.68
2018-04-07T14:38:22.835Z,44.48
2018-04-07T14:40:50.325Z,44.03
2018-04-07T14:43:17.840Z,42.99
2018-04-07T14:45:45.321Z,41.82
2018-04-07T14:48:12.795Z,41.31
2018-04-07T14:50:40.298Z,44.47
2018-04-07T14:53:07.789Z,43.44
2018-04-07T14:55:35.302Z,42.54
2018-04-07T14:58:02.862Z,43.91
2018-04-07T15:00:30.361Z,41.11
2018-04-07T15:02:57.852Z,43.96
2018-04-07T15:05:25.345Z,43.38
2018-04-07T15:07:52.893Z,44.55
2018-04-07T15:10:20.374Z,44.11
2018-04-07T15:12:47.839Z,44.21
2018-04-07T15:15:15.459Z,43.98
2018-04-07T15:17:42.934Z,44.21
2018-04-07T15:20:10.452Z,44.42
2018-04-07T15:22:37.922Z,44.64
2018-04-07T15:25:05.492Z,43.85
2018-04-07T15:27:32.978Z,44.49
2018-04-07T15:30:00.498Z,42.93
2018-04-07T15:32:28.017Z,42.75
2018-04-07T15:34:55.559Z,43.34
2018-04-07T15:37:23.165Z,43.81
2018-04-07T15:39:50.693Z,44.23
2018-04-07T15:42:18.150Z,44.75
2018-04-07T15:44:45.625Z,43.45
2018-04-07T15:47:13.130Z,43.52
2018-04-07T15:49:40.590Z,42.34
2018-04-07T15:52:08.062Z,42.76
2018-04-07T15:54:35.564Z,42.97
2018-04-07T15:57:03.054Z,42.01
2018-04-07T15:59:30.571Z,43.66
2018-04-07T16:01:58.066Z,41.98
2018-04-07T16:04:25.563Z,41.18
2018-04-07T16:06:53.048Z,42.36
2018-04-07T16:09:20.569Z,41.99
2018-04-07T16:11:48.068Z,42.40
2018-04-07T16:14:15.563Z,42.34
2018-04-07T16:16:43.525Z,41.13
2018-04-07T16:19:11.069Z,40.55
2018-04-07T16:21:38.566Z,40.00
2018-04-07T16:24:06.037Z,40.55
2018-04-07T16:26:33.560Z,40.44
2018-04-07T16:29:01.048Z,39.32
2018-04-07T16:31:28.556Z,39.84
2018-04-07T16:33:56.908Z,38.07
2018-04-07T16:36:24.423Z,37.69
2018-04-07T16:38:51.930Z,37.38
2018-04-07T16:41:19.415Z,36.70
2018-04-07T16:43:46.937Z,35.68
2018-04-07T16:46:14.424Z,35.79
2018-04-07T16:48:42.023Z,35.94
2018-04-07T16:51:09.642Z,35.37
2018-04-07T16:53:37.157Z,33.82
2018-04-07T16:56:04.656Z,31.72
2018-04-07T16:58:32.227Z,30.37
2018-04-07T17:00:59.844Z,28.93
2018-04-07T17:03:27.353Z,28.42
2018-04-07T17:05:54.944Z,27.66
2018-04-07T17:08:22.471Z,26.82
2018-04-07T17:10:50.062Z,25.97
2018-04-07T17:13:17.548Z,25.69
2018-04-07T17:15:45.041Z,25.23
2018-04-07T17:18:12.598Z,25.00
2018-04-07T17:20:40.145Z,24.66
2018-04-07T17:23:07.665Z,24.50
2018-04-07T17:25:35.156Z,23.96
2018-04-07T17:28:02.653Z,23.70
2018-04-07T17:30:30.315Z,23.46
2018-04-07T17:32:57.822Z,23.34
2018-04-07T17:35:25.321Z,23.01
2018-04-07T17:37:53.808Z,22.86
2018-04-07T17:40:21.362Z,22.61
2018-04-07T17:42:48.923Z,22.58
2018-04-07T17:45:16.444Z,22.33
2018-04-07T17:47:43.954Z,22.11
2018-04-07T17:50:11.448Z,21.95
2018-04-07T17:52:38.961Z,21.81
2018-04-07T17:55:06.614Z,21.65
2018-04-07T17:57:34.180Z,21.43
2018-04-07T18:00:01.704Z,21.30
2018-04-07T18:02:29.209Z,21.12
2018-04-07T18:04:56.709Z,20.98
2018-04-07T18:07:24.205Z,20.84
2018-04-07T18:09:51.695Z,20.62
2018-04-07T18:12:19.185Z,20.51
2018-04-07T18:14:46.684Z,20.36
2018-04-07T18:17:14.248Z,20.41
2018-04-07T18:19:41.849Z,20.39
2018-04-07T18:22:09.537Z,20.38
2018-04-07T18:24:37.023Z,20.14
2018-04-07T18:27:04.676Z,20.21
2018-04-07T18:29:32.188Z,20.03
2018-04-07T18:31:59.676Z,19.79
2018-04-07T18:34:27.226Z,19.66
2018-04-07T18:36:54.738Z,19.51
2018-04-07T18:39:22.260Z,19.42
2018-04-07T18:41:49.814Z,19.28
2018-04-07T18:44:17.335Z,19.28
2018-04-07T18:46:44.844Z,19.29
2018-04-07T18:49:12.346Z,19.18
2018-04-07T18:51:39.855Z,19.14
2018-04-07T18:54:07.463Z,19.21
2018-04-07T18:56:34.998Z,19.21
2018-04-07T18:59:02.556Z,19.26
2018-04-07T19:01:30.049Z,18.78
2018-04-07T19:03:57.629Z,18.41
2018-04-07T19:06:25.146Z,18.28
2018-04-07T19:08:52.663Z,18.08
2018-04-07T19:11:20.185Z,17.95
2018-04-07T19:13:47.706Z,17.94
2018-04-07T19:16:15.203Z,18.06
2018-04-07T19:18:42.720Z,17.98
2018-04-07T19:21:10.213Z,17.81
2018-04-07T19:23:37.710Z,17.62
2018-04-07T19:26:05.210Z,17.47
2018-04-07T19:28:32.726Z,17.29
2018-04-07T19:31:00.307Z,17.19
2018-04-07T19:33:27.810Z,17.13
2018-04-07T19:35:55.350Z,16.95
2018-04-07T19:38:22.915Z,16.87
2018-04-07T19:40:50.426Z,16.72
2018-04-07T19:43:17.934Z,16.69
2018-04-07T19:45:45.481Z,16.66
2018-04-07T19:48:13.015Z,16.67
2018-04-07T19:50:40.507Z,16.56
2018-04-07T19:53:07.991Z,16.50
2018-04-07T19:55:35.488Z,16.41
2018-04-07T19:58:03.206Z,16.30
2018-04-07T20:00:30.847Z,16.20
2018-04-07T20:02:58.343Z,16.13
2018-04-07T20:05:25.982Z,16.20
2018-04-07T20:07:53.586Z,16.54
2018-04-07T20:10:21.070Z,16.30
2018-04-07T20:12:48.659Z,16.11
2018-04-07T20:15:16.167Z,16.03
2018-04-07T20:17:43.673Z,15.94
2018-04-07T20:20:11.166Z,15.82
2018-04-07T20:22:38.691Z,15.76
2018-04-07T20:25:06.248Z,15.66
2018-04-07T20:27:33.892Z,15.54
2018-04-07T20:30:01.404Z,15.46
2018-04-07T20:32:28.933Z,15.39
2018-04-07T20:34:56.429Z,15.38
2018-04-07T20:37:24.013Z,15.33
2018-04-07T20:39:51.505Z,15.35
2018-04-07T20:42:27.800Z,15.29
2018-04-07T20:44:55.553Z,15.24
2018-04-07T20:47:23.804Z,15.36
2018-04-07T20:49:51.318Z,16.08
2018-04-07T20:52:18.812Z,16.68
2018-04-07T20:54:46.356Z,16.52
2018-04-07T20:57:13.870Z,16.65
2018-04-07T20:59:41.356Z,16.77
2018-04-07T21:02:09.615Z,16.52
2018-04-07T21:04:37.117Z,16.23
2018-04-07T21:07:04.618Z,15.79
2018-04-07T21:09:32.124Z,15.46
2018-04-07T21:11:59.628Z,15.20
2018-04-07T21:14:27.127Z,14.97
2018-04-07T21:16:54.663Z,14.87
2018-04-07T21:19:22.251Z,14.82
2018-04-07T21:21:49.737Z,14.75
2018-04-07T21:24:17.315Z,14.66
2018-04-07T21:26:44.858Z,14.68
2018-04-07T21:29:12.401Z,14.67
2018-04-07T21:31:39.904Z,14.91
2018-04-07T21:34:07.452Z,14.93
2018-04-07T21:36:35.236Z,15.23
2018-04-07T21:39:02.888Z,15.63
2018-04-07T21:41:30.390Z,15.57
2018-04-07T21:43:57.904Z,15.72
2018-04-07T21:46:25.449Z,15.68
2018-04-07T21:48:52.945Z,16.03
2018-04-07T21:51:20.560Z,15.72
2018-04-07T21:53:48.152Z,15.27
2018-04-07T21:56:15.744Z,15.29
2018-04-07T21:58:43.257Z,15.40
2018-04-07T22:01:10.898Z,14.81
2018-04-07T22:03:38.392Z,14.70
2018-04-07T22:06:05.927Z,14.76
2018-04-07T22:08:33.449Z,14.71
2018-04-07T22:11:00.936Z,14.43
2018-04-07T22:13:28.537Z,14.30
2018-04-07T22:15:56.288Z,14.09
2018-04-07T22:18:23.951Z,14.00
2018-04-07T22:20:51.560Z,13.69
2018-04-07T22:23:19.086Z,13.66
2018-04-07T22:25:46.580Z,13.67
2018-04-07T22:28:14.089Z,13.78
2018-04-07T22:30:41.704Z,13.76
2018-04-07T22:33:09.336Z,13.60
2018-04-07T22:35:36.867Z,13.45
2018-04-07T22:38:25.376Z,13.32
2018-04-07T22:40:52.881Z,13.16
2018-04-07T22:43:20.527Z,13.49
2018-04-07T22:45:48.050Z,13.50
2018-04-07T22:48:15.553Z,14.00
2018-04-07T22:50:43.066Z,13.77
2018-04-07T22:53:10.574Z,13.96
2018-04-07T22:55:40.104Z,13.85
2018-04-07T22:58:10.205Z,13.97
2018-04-07T23:00:38.351Z,14.24
2018-04-07T23:03:06.244Z,13.93
2018-04-07T23:05:33.801Z,13.87
2018-04-07T23:08:04.439Z,13.83
2018-04-07T23:10:45.957Z,13.44
2018-04-07T23:13:13.461Z,13.07
2018-04-07T23:15:40.959Z,12.88
2018-04-07T23:18:08.510Z,12.71
2018-04-07T23:20:36.573Z,12.64
2018-04-07T23:23:08.562Z,12.52
2018-04-07T23:25:36.092Z,12.48
2018-04-07T23:28:03.602Z,12.52
2018-04-07T23:30:31.124Z,12.48
2018-04-07T23:33:00.959Z,12.33
2018-04-07T23:35:31.904Z,12.22
2018-04-07T23:38:03.367Z,12.12
2018-04-07T23:40:33.686Z,12.08
2018-04-07T23:43:04.350Z,12.08
2018-04-07T23:45:32.842Z,12.11
2018-04-07T23:48:02.609Z,12.11
2018-04-07T23:50:33.547Z,12.06
2018-04-07T23:53:06.226Z,11.99
2018-04-07T23:55:37.575Z,11.96
2018-04-07T23:58:09.038Z,11.87
